sensor_id;sensor_type;location;lat;lon;timestamp;P1;durP1;ratioP1;P2;durP2;ratioP2
81215;SDS011;70688;52.492;13.420;2023-06-22T00:00:47;19.35;;;15.52;;
81215;SDS011;70688;52.492;13.420;2023-06-22T00:03:13;18.33;;;14.90;;
81215;SDS011;70688;52.492;13.420;2023-06-22T00:05:39;18.77;;;14.43;;
81215;SDS011;70688;52.492;13.420;2023-06-22T00:08:04;17.75;;;14.18;;
81215;SDS011;70688;52.492;13.420;2023-06-22T00:10:30;19.20;;;14.30;;
81215;SDS011;70688;52.492;13.420;2023-06-22T00:12:56;19.58;;;13.13;;
81215;SDS011;70688;52.492;13.420;2023-06-22T00:15:22;16.08;;;12.52;;
81215;SDS011;70688;52.492;13.420;2023-06-22T00:17:47;18.77;;;12.80;;
81215;SDS011;70688;52.492;13.420;2023-06-22T00:20:14;18.63;;;13.32;;
81215;SDS011;70688;52.492;13.420;2023-06-22T00:22:39;16.17;;;12.27;;
81215;SDS011;70688;52.492;13.420;2023-06-22T00:25:06;14.20;;;12.40;;
81215;SDS011;70688;52.492;13.420;2023-06-22T00:27:32;16.33;;;12.57;;
81215;SDS011;70688;52.492;13.420;2023-06-22T00:29:58;17.00;;;11.52;;
81215;SDS011;70688;52.492;13.420;2023-06-22T00:32:23;15.30;;;12.30;;
81215;SDS011;70688;52.492;13.420;2023-06-22T00:34:49;14.18;;;11.35;;
81215;SDS011;70688;52.492;13.420;2023-06-22T00:37:15;16.75;;;12.15;;
81215;SDS011;70688;52.492;13.420;2023-06-22T00:39:42;14.10;;;11.57;;
81215;SDS011;70688;52.492;13.420;2023-06-22T00:42:08;15.30;;;12.02;;
81215;SDS011;70688;52.492;13.420;2023-06-22T00:44:34;15.10;;;11.90;;
81215;SDS011;70688;52.492;13.420;2023-06-22T00:47:01;12.48;;;10.98;;
81215;SDS011;70688;52.492;13.420;2023-06-22T00:49:27;14.37;;;11.53;;
81215;SDS011;70688;52.492;13.420;2023-06-22T00:51:53;14.23;;;11.88;;
81215;SDS011;70688;52.492;13.420;2023-06-22T00:54:21;16.40;;;12.07;;
81215;SDS011;70688;52.492;13.420;2023-06-22T00:56:53;17.90;;;12.73;;
81215;SDS011;70688;52.492;13.420;2023-06-22T00:59:21;16.33;;;12.38;;
81215;SDS011;70688;52.492;13.420;2023-06-22T01:01:48;15.07;;;12.02;;
81215;SDS011;70688;52.492;13.420;2023-06-22T01:04:14;17.75;;;13.30;;
81215;SDS011;70688;52.492;13.420;2023-06-22T01:06:45;16.45;;;12.60;;
81215;SDS011;70688;52.492;13.420;2023-06-22T01:09:27;14.82;;;11.77;;
81215;SDS011;70688;52.492;13.420;2023-06-22T01:12:04;16.73;;;12.85;;
81215;SDS011;70688;52.492;13.420;2023-06-22T01:17:07;15.93;;;12.80;;
81215;SDS011;70688;52.492;13.420;2023-06-22T01:22:21;17.63;;;13.00;;
81215;SDS011;70688;52.492;13.420;2023-06-22T01:30:40;16.85;;;13.70;;
81215;SDS011;70688;52.492;13.420;2023-06-22T01:33:09;17.85;;;13.55;;
81215;SDS011;70688;52.492;13.420;2023-06-22T01:35:38;17.98;;;14.35;;
81215;SDS011;70688;52.492;13.420;2023-06-22T01:38:04;19.57;;;14.53;;
81215;SDS011;70688;52.492;13.420;2023-06-22T01:40:31;16.40;;;13.55;;
81215;SDS011;70688;52.492;13.420;2023-06-22T01:42:59;18.42;;;14.25;;
81215;SDS011;70688;52.492;13.420;2023-06-22T01:45:26;21.08;;;14.43;;
81215;SDS011;70688;52.492;13.420;2023-06-22T01:47:52;21.27;;;14.95;;
81215;SDS011;70688;52.492;13.420;2023-06-22T01:50:19;19.38;;;14.80;;
81215;SDS011;70688;52.492;13.420;2023-06-22T01:52:45;16.83;;;14.57;;
81215;SDS011;70688;52.492;13.420;2023-06-22T01:55:11;20.92;;;16.08;;
81215;SDS011;70688;52.492;13.420;2023-06-22T01:57:37;16.23;;;14.07;;
81215;SDS011;70688;52.492;13.420;2023-06-22T02:02:32;19.60;;;15.63;;
81215;SDS011;70688;52.492;13.420;2023-06-22T02:05:07;20.92;;;15.68;;
81215;SDS011;70688;52.492;13.420;2023-06-22T02:07:49;17.80;;;14.25;;
81215;SDS011;70688;52.492;13.420;2023-06-22T02:10:32;19.40;;;15.65;;
81215;SDS011;70688;52.492;13.420;2023-06-22T02:12:59;18.40;;;15.55;;
81215;SDS011;70688;52.492;13.420;2023-06-22T02:15:27;20.65;;;16.58;;
81215;SDS011;70688;52.492;13.420;2023-06-22T02:17:53;20.13;;;15.38;;
81215;SDS011;70688;52.492;13.420;2023-06-22T02:20:19;20.27;;;16.60;;
81215;SDS011;70688;52.492;13.420;2023-06-22T02:22:45;22.67;;;16.20;;
81215;SDS011;70688;52.492;13.420;2023-06-22T02:25:11;21.45;;;16.05;;
81215;SDS011;70688;52.492;13.420;2023-06-22T02:27:36;19.70;;;16.40;;
81215;SDS011;70688;52.492;13.420;2023-06-22T02:30:05;20.85;;;16.85;;
81215;SDS011;70688;52.492;13.420;2023-06-22T02:32:34;22.58;;;16.90;;
81215;SDS011;70688;52.492;13.420;2023-06-22T02:35:00;21.98;;;17.92;;
81215;SDS011;70688;52.492;13.420;2023-06-22T02:37:29;22.05;;;16.80;;
81215;SDS011;70688;52.492;13.420;2023-06-22T02:39:56;21.00;;;17.30;;
81215;SDS011;70688;52.492;13.420;2023-06-22T02:42:21;20.58;;;16.63;;
81215;SDS011;70688;52.492;13.420;2023-06-22T02:44:47;20.83;;;16.77;;
81215;SDS011;70688;52.492;13.420;2023-06-22T02:47:12;26.75;;;17.10;;
81215;SDS011;70688;52.492;13.420;2023-06-22T02:49:38;24.15;;;17.73;;
81215;SDS011;70688;52.492;13.420;2023-06-22T02:52:04;22.30;;;17.65;;
81215;SDS011;70688;52.492;13.420;2023-06-22T02:54:30;23.23;;;17.27;;
81215;SDS011;70688;52.492;13.420;2023-06-22T02:56:55;24.77;;;16.60;;
81215;SDS011;70688;52.492;13.420;2023-06-22T02:59:21;22.77;;;16.55;;
81215;SDS011;70688;52.492;13.420;2023-06-22T03:01:49;21.48;;;16.60;;
81215;SDS011;70688;52.492;13.420;2023-06-22T03:04:15;21.45;;;15.88;;
81215;SDS011;70688;52.492;13.420;2023-06-22T03:06:41;20.83;;;16.55;;
81215;SDS011;70688;52.492;13.420;2023-06-22T03:09:07;19.65;;;15.95;;
81215;SDS011;70688;52.492;13.420;2023-06-22T03:11:35;22.15;;;16.67;;
81215;SDS011;70688;52.492;13.420;2023-06-22T03:14:01;22.75;;;16.40;;
81215;SDS011;70688;52.492;13.420;2023-06-22T03:16:27;20.02;;;15.95;;
81215;SDS011;70688;52.492;13.420;2023-06-22T03:18:54;18.42;;;13.45;;
81215;SDS011;70688;52.492;13.420;2023-06-22T03:21:21;16.45;;;13.65;;
81215;SDS011;70688;52.492;13.420;2023-06-22T03:23:47;19.55;;;13.73;;
81215;SDS011;70688;52.492;13.420;2023-06-22T03:26:13;19.73;;;13.63;;
81215;SDS011;70688;52.492;13.420;2023-06-22T03:28:42;18.30;;;12.18;;
81215;SDS011;70688;52.492;13.420;2023-06-22T03:31:08;15.50;;;11.75;;
81215;SDS011;70688;52.492;13.420;2023-06-22T03:33:34;15.23;;;12.32;;
81215;SDS011;70688;52.492;13.420;2023-06-22T03:36:00;15.90;;;11.98;;
81215;SDS011;70688;52.492;13.420;2023-06-22T03:38:25;15.27;;;11.70;;
81215;SDS011;70688;52.492;13.420;2023-06-22T03:40:51;16.05;;;13.00;;
81215;SDS011;70688;52.492;13.420;2023-06-22T03:43:16;15.25;;;12.52;;
81215;SDS011;70688;52.492;13.420;2023-06-22T03:45:42;16.63;;;13.57;;
81215;SDS011;70688;52.492;13.420;2023-06-22T03:48:10;14.23;;;11.98;;
81215;SDS011;70688;52.492;13.420;2023-06-22T03:50:36;15.00;;;11.50;;
81215;SDS011;70688;52.492;13.420;2023-06-22T03:53:02;13.18;;;10.43;;
81215;SDS011;70688;52.492;13.420;2023-06-22T03:55:27;13.25;;;9.80;;
81215;SDS011;70688;52.492;13.420;2023-06-22T03:57:53;13.40;;;10.63;;
81215;SDS011;70688;52.492;13.420;2023-06-22T04:00:21;13.40;;;9.73;;
81215;SDS011;70688;52.492;13.420;2023-06-22T04:02:48;11.82;;;8.75;;
81215;SDS011;70688;52.492;13.420;2023-06-22T04:05:13;12.45;;;9.32;;
81215;SDS011;70688;52.492;13.420;2023-06-22T04:07:39;13.82;;;8.80;;
81215;SDS011;70688;52.492;13.420;2023-06-22T04:10:05;9.20;;;7.15;;
81215;SDS011;70688;52.492;13.420;2023-06-22T04:12:32;9.77;;;7.85;;
81215;SDS011;70688;52.492;13.420;2023-06-22T04:14:58;11.68;;;8.60;;
81215;SDS011;70688;52.492;13.420;2023-06-22T04:17:23;11.88;;;8.52;;
81215;SDS011;70688;52.492;13.420;2023-06-22T04:19:50;15.05;;;8.82;;
81215;SDS011;70688;52.492;13.420;2023-06-22T04:22:16;14.18;;;8.63;;
81215;SDS011;70688;52.492;13.420;2023-06-22T04:24:41;10.90;;;9.20;;
81215;SDS011;70688;52.492;13.420;2023-06-22T04:27:07;12.82;;;9.57;;
81215;SDS011;70688;52.492;13.420;2023-06-22T04:29:33;10.45;;;8.60;;
81215;SDS011;70688;52.492;13.420;2023-06-22T04:31:58;12.00;;;8.63;;
81215;SDS011;70688;52.492;13.420;2023-06-22T04:34:30;13.20;;;9.35;;
81215;SDS011;70688;52.492;13.420;2023-06-22T04:36:56;12.98;;;8.73;;
81215;SDS011;70688;52.492;13.420;2023-06-22T04:39:22;13.45;;;10.05;;
81215;SDS011;70688;52.492;13.420;2023-06-22T04:41:48;13.43;;;10.45;;
81215;SDS011;70688;52.492;13.420;2023-06-22T04:44:16;11.60;;;9.63;;
81215;SDS011;70688;52.492;13.420;2023-06-22T04:46:58;12.82;;;9.70;;
81215;SDS011;70688;52.492;13.420;2023-06-22T04:49:27;11.77;;;9.63;;
81215;SDS011;70688;52.492;13.420;2023-06-22T04:51:58;10.30;;;7.53;;
81215;SDS011;70688;52.492;13.420;2023-06-22T04:54:24;11.53;;;8.10;;
81215;SDS011;70688;52.492;13.420;2023-06-22T04:56:50;8.30;;;6.95;;
81215;SDS011;70688;52.492;13.420;2023-06-22T04:59:21;10.05;;;7.00;;
81215;SDS011;70688;52.492;13.420;2023-06-22T05:01:47;10.15;;;7.22;;
81215;SDS011;70688;52.492;13.420;2023-06-22T05:04:13;11.10;;;8.20;;
81215;SDS011;70688;52.492;13.420;2023-06-22T05:06:38;8.55;;;7.32;;
81215;SDS011;70688;52.492;13.420;2023-06-22T05:09:04;11.52;;;7.60;;
81215;SDS011;70688;52.492;13.420;2023-06-22T05:11:31;10.88;;;7.32;;
81215;SDS011;70688;52.492;13.420;2023-06-22T05:13:56;10.52;;;8.25;;
81215;SDS011;70688;52.492;13.420;2023-06-22T05:16:22;11.73;;;8.65;;
81215;SDS011;70688;52.492;13.420;2023-06-22T05:18:58;10.20;;;7.82;;
81215;SDS011;70688;52.492;13.420;2023-06-22T05:21:24;11.63;;;8.38;;
81215;SDS011;70688;52.492;13.420;2023-06-22T05:23:52;11.70;;;7.82;;
81215;SDS011;70688;52.492;13.420;2023-06-22T05:26:18;14.93;;;7.65;;
81215;SDS011;70688;52.492;13.420;2023-06-22T05:28:45;9.73;;;7.95;;
81215;SDS011;70688;52.492;13.420;2023-06-22T05:31:14;9.73;;;7.50;;
81215;SDS011;70688;52.492;13.420;2023-06-22T05:33:43;11.40;;;8.25;;
81215;SDS011;70688;52.492;13.420;2023-06-22T05:36:09;13.73;;;8.55;;
81215;SDS011;70688;52.492;13.420;2023-06-22T05:38:35;11.07;;;8.43;;
81215;SDS011;70688;52.492;13.420;2023-06-22T05:41:01;9.73;;;8.20;;
81215;SDS011;70688;52.492;13.420;2023-06-22T05:43:27;14.05;;;8.73;;
81215;SDS011;70688;52.492;13.420;2023-06-22T05:45:53;10.38;;;8.27;;
81215;SDS011;70688;52.492;13.420;2023-06-22T05:48:19;10.77;;;7.55;;
81215;SDS011;70688;52.492;13.420;2023-06-22T05:50:44;9.52;;;8.35;;
81215;SDS011;70688;52.492;13.420;2023-06-22T05:53:10;9.85;;;8.05;;
81215;SDS011;70688;52.492;13.420;2023-06-22T05:55:36;12.10;;;8.23;;
81215;SDS011;70688;52.492;13.420;2023-06-22T05:58:02;9.23;;;7.28;;
81215;SDS011;70688;52.492;13.420;2023-06-22T06:00:30;15.40;;;9.07;;
81215;SDS011;70688;52.492;13.420;2023-06-22T06:02:56;9.43;;;7.45;;
81215;SDS011;70688;52.492;13.420;2023-06-22T06:05:22;10.18;;;7.65;;
81215;SDS011;70688;52.492;13.420;2023-06-22T06:07:50;10.90;;;7.60;;
81215;SDS011;70688;52.492;13.420;2023-06-22T06:10:16;10.75;;;7.20;;
81215;SDS011;70688;52.492;13.420;2023-06-22T06:12:42;12.18;;;7.45;;
81215;SDS011;70688;52.492;13.420;2023-06-22T06:15:07;10.07;;;6.60;;
81215;SDS011;70688;52.492;13.420;2023-06-22T06:17:33;12.32;;;7.43;;
81215;SDS011;70688;52.492;13.420;2023-06-22T06:19:59;10.32;;;6.57;;
81215;SDS011;70688;52.492;13.420;2023-06-22T06:22:25;9.50;;;6.70;;
81215;SDS011;70688;52.492;13.420;2023-06-22T06:24:51;11.90;;;7.55;;
81215;SDS011;70688;52.492;13.420;2023-06-22T06:27:16;10.35;;;6.88;;
81215;SDS011;70688;52.492;13.420;2023-06-22T06:29:43;9.52;;;6.80;;
81215;SDS011;70688;52.492;13.420;2023-06-22T06:32:10;9.07;;;7.00;;
81215;SDS011;70688;52.492;13.420;2023-06-22T06:34:37;9.52;;;7.05;;
81215;SDS011;70688;52.492;13.420;2023-06-22T06:37:03;21.85;;;9.70;;
81215;SDS011;70688;52.492;13.420;2023-06-22T06:39:28;11.07;;;7.50;;
81215;SDS011;70688;52.492;13.420;2023-06-22T06:41:54;12.90;;;7.80;;
81215;SDS011;70688;52.492;13.420;2023-06-22T06:44:19;14.18;;;7.60;;
81215;SDS011;70688;52.492;13.420;2023-06-22T06:46:46;8.63;;;6.77;;
81215;SDS011;70688;52.492;13.420;2023-06-22T06:49:11;9.35;;;5.38;;
81215;SDS011;70688;52.492;13.420;2023-06-22T06:51:38;9.70;;;5.88;;
81215;SDS011;70688;52.492;13.420;2023-06-22T06:54:03;7.65;;;5.85;;
81215;SDS011;70688;52.492;13.420;2023-06-22T06:56:29;8.93;;;6.38;;
81215;SDS011;70688;52.492;13.420;2023-06-22T06:58:55;9.80;;;6.32;;
81215;SDS011;70688;52.492;13.420;2023-06-22T07:01:21;8.35;;;4.82;;
81215;SDS011;70688;52.492;13.420;2023-06-22T07:03:46;12.13;;;6.15;;
81215;SDS011;70688;52.492;13.420;2023-06-22T07:06:13;7.93;;;4.60;;
81215;SDS011;70688;52.492;13.420;2023-06-22T07:08:38;8.43;;;5.13;;
81215;SDS011;70688;52.492;13.420;2023-06-22T07:11:04;7.60;;;4.55;;
81215;SDS011;70688;52.492;13.420;2023-06-22T07:13:31;9.60;;;8.55;;
81215;SDS011;70688;52.492;13.420;2023-06-22T07:15:57;9.48;;;7.15;;
81215;SDS011;70688;52.492;13.420;2023-06-22T07:18:31;8.37;;;5.17;;
81215;SDS011;70688;52.492;13.420;2023-06-22T07:21:04;9.15;;;4.82;;
81215;SDS011;70688;52.492;13.420;2023-06-22T07:25:57;6.73;;;4.30;;
81215;SDS011;70688;52.492;13.420;2023-06-22T07:28:26;7.68;;;6.07;;
81215;SDS011;70688;52.492;13.420;2023-06-22T07:30:52;8.38;;;6.65;;
81215;SDS011;70688;52.492;13.420;2023-06-22T07:33:17;9.43;;;5.40;;
81215;SDS011;70688;52.492;13.420;2023-06-22T07:35:44;7.32;;;4.18;;
81215;SDS011;70688;52.492;13.420;2023-06-22T07:38:13;5.07;;;4.10;;
81215;SDS011;70688;52.492;13.420;2023-06-22T07:40:39;7.50;;;4.00;;
81215;SDS011;70688;52.492;13.420;2023-06-22T07:43:06;8.77;;;4.05;;
81215;SDS011;70688;52.492;13.420;2023-06-22T07:45:32;6.32;;;3.58;;
81215;SDS011;70688;52.492;13.420;2023-06-22T07:47:59;6.80;;;4.40;;
81215;SDS011;70688;52.492;13.420;2023-06-22T07:50:25;7.18;;;5.13;;
81215;SDS011;70688;52.492;13.420;2023-06-22T07:52:51;8.50;;;5.18;;
81215;SDS011;70688;52.492;13.420;2023-06-22T07:55:17;6.35;;;4.28;;
81215;SDS011;70688;52.492;13.420;2023-06-22T07:57:43;9.13;;;5.18;;
81215;SDS011;70688;52.492;13.420;2023-06-22T08:00:09;7.78;;;4.07;;
81215;SDS011;70688;52.492;13.420;2023-06-22T08:02:40;6.68;;;4.65;;
81215;SDS011;70688;52.492;13.420;2023-06-22T08:05:06;7.10;;;4.20;;
81215;SDS011;70688;52.492;13.420;2023-06-22T08:07:36;6.65;;;3.58;;
81215;SDS011;70688;52.492;13.420;2023-06-22T08:10:05;6.30;;;4.07;;
81215;SDS011;70688;52.492;13.420;2023-06-22T08:12:31;7.40;;;3.70;;
81215;SDS011;70688;52.492;13.420;2023-06-22T08:15:06;6.05;;;4.13;;
81215;SDS011;70688;52.492;13.420;2023-06-22T08:17:38;6.65;;;3.63;;
81215;SDS011;70688;52.492;13.420;2023-06-22T08:20:05;4.15;;;3.40;;
81215;SDS011;70688;52.492;13.420;2023-06-22T08:22:37;6.22;;;3.88;;
81215;SDS011;70688;52.492;13.420;2023-06-22T08:25:04;5.82;;;3.78;;
81215;SDS011;70688;52.492;13.420;2023-06-22T08:27:31;6.82;;;4.55;;
81215;SDS011;70688;52.492;13.420;2023-06-22T08:29:57;6.35;;;4.32;;
81215;SDS011;70688;52.492;13.420;2023-06-22T08:32:24;6.40;;;4.60;;
81215;SDS011;70688;52.492;13.420;2023-06-22T08:34:52;8.95;;;6.22;;
81215;SDS011;70688;52.492;13.420;2023-06-22T08:37:18;9.02;;;6.68;;
81215;SDS011;70688;52.492;13.420;2023-06-22T08:39:44;6.15;;;4.55;;
81215;SDS011;70688;52.492;13.420;2023-06-22T08:42:09;9.32;;;6.43;;
81215;SDS011;70688;52.492;13.420;2023-06-22T08:44:35;8.38;;;5.75;;
81215;SDS011;70688;52.492;13.420;2023-06-22T08:47:01;5.72;;;4.50;;
81215;SDS011;70688;52.492;13.420;2023-06-22T08:49:27;12.10;;;6.73;;
81215;SDS011;70688;52.492;13.420;2023-06-22T08:51:52;8.88;;;5.40;;
81215;SDS011;70688;52.492;13.420;2023-06-22T08:54:21;5.70;;;4.85;;
81215;SDS011;70688;52.492;13.420;2023-06-22T08:56:46;10.00;;;5.22;;
81215;SDS011;70688;52.492;13.420;2023-06-22T08:59:12;5.97;;;4.25;;
81215;SDS011;70688;52.492;13.420;2023-06-22T09:01:38;7.50;;;3.97;;
81215;SDS011;70688;52.492;13.420;2023-06-22T09:04:03;4.90;;;4.00;;
81215;SDS011;70688;52.492;13.420;2023-06-22T09:06:31;4.10;;;3.03;;
81215;SDS011;70688;52.492;13.420;2023-06-22T09:08:57;5.87;;;4.07;;
81215;SDS011;70688;52.492;13.420;2023-06-22T09:11:24;7.68;;;4.30;;
81215;SDS011;70688;52.492;13.420;2023-06-22T09:13:50;5.75;;;4.40;;
81215;SDS011;70688;52.492;13.420;2023-06-22T09:16:17;4.53;;;3.35;;
81215;SDS011;70688;52.492;13.420;2023-06-22T09:18:45;5.95;;;4.68;;
81215;SDS011;70688;52.492;13.420;2023-06-22T09:21:12;5.30;;;3.40;;
81215;SDS011;70688;52.492;13.420;2023-06-22T09:23:38;6.63;;;3.90;;
81215;SDS011;70688;52.492;13.420;2023-06-22T09:26:03;5.03;;;3.97;;
81215;SDS011;70688;52.492;13.420;2023-06-22T09:28:29;6.22;;;4.05;;
81215;SDS011;70688;52.492;13.420;2023-06-22T09:30:54;4.57;;;3.72;;
81215;SDS011;70688;52.492;13.420;2023-06-22T09:33:23;5.95;;;4.50;;
81215;SDS011;70688;52.492;13.420;2023-06-22T09:35:49;5.53;;;4.40;;
81215;SDS011;70688;52.492;13.420;2023-06-22T09:38:16;5.70;;;4.13;;
81215;SDS011;70688;52.492;13.420;2023-06-22T09:40:41;7.05;;;4.30;;
81215;SDS011;70688;52.492;13.420;2023-06-22T09:43:07;5.22;;;4.15;;
81215;SDS011;70688;52.492;13.420;2023-06-22T09:45:33;6.72;;;4.22;;
81215;SDS011;70688;52.492;13.420;2023-06-22T09:47:58;6.03;;;4.47;;
81215;SDS011;70688;52.492;13.420;2023-06-22T09:50:24;5.82;;;4.32;;
81215;SDS011;70688;52.492;13.420;2023-06-22T09:52:50;5.35;;;4.53;;
81215;SDS011;70688;52.492;13.420;2023-06-22T09:55:19;8.45;;;4.90;;
81215;SDS011;70688;52.492;13.420;2023-06-22T09:57:46;6.22;;;4.80;;
81215;SDS011;70688;52.492;13.420;2023-06-22T10:00:12;7.38;;;4.80;;
81215;SDS011;70688;52.492;13.420;2023-06-22T10:02:39;9.32;;;6.28;;
81215;SDS011;70688;52.492;13.420;2023-06-22T10:05:06;5.75;;;4.68;;
81215;SDS011;70688;52.492;13.420;2023-06-22T10:07:32;6.13;;;4.50;;
81215;SDS011;70688;52.492;13.420;2023-06-22T10:09:58;6.75;;;4.97;;
81215;SDS011;70688;52.492;13.420;2023-06-22T10:12:24;6.22;;;4.63;;
81215;SDS011;70688;52.492;13.420;2023-06-22T10:14:50;6.78;;;4.72;;
81215;SDS011;70688;52.492;13.420;2023-06-22T10:17:16;5.57;;;4.88;;
81215;SDS011;70688;52.492;13.420;2023-06-22T10:19:41;7.47;;;4.65;;
81215;SDS011;70688;52.492;13.420;2023-06-22T10:22:07;6.75;;;4.63;;
81215;SDS011;70688;52.492;13.420;2023-06-22T10:24:32;7.20;;;5.43;;
81215;SDS011;70688;52.492;13.420;2023-06-22T10:26:58;7.78;;;5.00;;
81215;SDS011;70688;52.492;13.420;2023-06-22T10:29:24;6.40;;;5.03;;
81215;SDS011;70688;52.492;13.420;2023-06-22T10:31:49;5.88;;;4.85;;
81215;SDS011;70688;52.492;13.420;2023-06-22T10:34:15;7.38;;;4.45;;
81215;SDS011;70688;52.492;13.420;2023-06-22T10:36:40;7.47;;;5.32;;
81215;SDS011;70688;52.492;13.420;2023-06-22T10:39:06;6.78;;;5.00;;
81215;SDS011;70688;52.492;13.420;2023-06-22T10:41:32;6.50;;;4.22;;
81215;SDS011;70688;52.492;13.420;2023-06-22T10:43:58;5.47;;;4.68;;
81215;SDS011;70688;52.492;13.420;2023-06-22T10:46:26;7.28;;;4.00;;
81215;SDS011;70688;52.492;13.420;2023-06-22T10:48:55;6.88;;;4.13;;
81215;SDS011;70688;52.492;13.420;2023-06-22T10:51:22;5.53;;;4.10;;
81215;SDS011;70688;52.492;13.420;2023-06-22T10:53:47;6.70;;;4.53;;
81215;SDS011;70688;52.492;13.420;2023-06-22T10:56:13;5.28;;;4.15;;
81215;SDS011;70688;52.492;13.420;2023-06-22T10:58:39;6.32;;;4.28;;
81215;SDS011;70688;52.492;13.420;2023-06-22T11:01:04;6.68;;;4.82;;
81215;SDS011;70688;52.492;13.420;2023-06-22T11:03:30;5.03;;;4.25;;
81215;SDS011;70688;52.492;13.420;2023-06-22T11:05:56;8.60;;;4.70;;
81215;SDS011;70688;52.492;13.420;2023-06-22T11:08:21;6.32;;;4.13;;
81215;SDS011;70688;52.492;13.420;2023-06-22T11:10:47;5.15;;;4.22;;
81215;SDS011;70688;52.492;13.420;2023-06-22T11:13:12;6.45;;;4.65;;
81215;SDS011;70688;52.492;13.420;2023-06-22T11:15:38;6.38;;;4.63;;
81215;SDS011;70688;52.492;13.420;2023-06-22T11:18:04;7.47;;;4.47;;
81215;SDS011;70688;52.492;13.420;2023-06-22T11:20:32;6.18;;;4.20;;
81215;SDS011;70688;52.492;13.420;2023-06-22T11:23:03;4.80;;;4.07;;
81215;SDS011;70688;52.492;13.420;2023-06-22T11:25:30;7.35;;;4.40;;
81215;SDS011;70688;52.492;13.420;2023-06-22T11:27:55;7.78;;;4.07;;
81215;SDS011;70688;52.492;13.420;2023-06-22T11:30:21;5.30;;;4.53;;
81215;SDS011;70688;52.492;13.420;2023-06-22T11:32:47;9.40;;;4.43;;
81215;SDS011;70688;52.492;13.420;2023-06-22T11:35:13;7.40;;;4.60;;
81215;SDS011;70688;52.492;13.420;2023-06-22T11:37:39;6.63;;;4.80;;
81215;SDS011;70688;52.492;13.420;2023-06-22T11:40:05;6.60;;;4.93;;
81215;SDS011;70688;52.492;13.420;2023-06-22T11:42:34;6.38;;;4.20;;
81215;SDS011;70688;52.492;13.420;2023-06-22T11:44:59;5.47;;;4.20;;
81215;SDS011;70688;52.492;13.420;2023-06-22T11:47:25;6.22;;;4.45;;
81215;SDS011;70688;52.492;13.420;2023-06-22T11:49:51;6.32;;;4.75;;
81215;SDS011;70688;52.492;13.420;2023-06-22T11:52:16;5.18;;;4.05;;
81215;SDS011;70688;52.492;13.420;2023-06-22T11:54:43;7.05;;;4.45;;
81215;SDS011;70688;52.492;13.420;2023-06-22T11:57:08;6.45;;;4.60;;
81215;SDS011;70688;52.492;13.420;2023-06-22T11:59:34;6.40;;;4.28;;
81215;SDS011;70688;52.492;13.420;2023-06-22T12:01:59;5.63;;;4.40;;
81215;SDS011;70688;52.492;13.420;2023-06-22T12:04:25;6.90;;;4.30;;
81215;SDS011;70688;52.492;13.420;2023-06-22T12:06:51;6.90;;;4.80;;
81215;SDS011;70688;52.492;13.420;2023-06-22T12:09:16;7.70;;;5.40;;
81215;SDS011;70688;52.492;13.420;2023-06-22T12:11:42;6.45;;;4.57;;
81215;SDS011;70688;52.492;13.420;2023-06-22T12:14:08;8.05;;;4.43;;
81215;SDS011;70688;52.492;13.420;2023-06-22T12:16:33;6.40;;;4.97;;
81215;SDS011;70688;52.492;13.420;2023-06-22T12:18:59;6.85;;;4.95;;
81215;SDS011;70688;52.492;13.420;2023-06-22T12:21:25;5.35;;;4.75;;
81215;SDS011;70688;52.492;13.420;2023-06-22T12:23:53;7.03;;;4.85;;
81215;SDS011;70688;52.492;13.420;2023-06-22T12:26:19;5.57;;;4.28;;
81215;SDS011;70688;52.492;13.420;2023-06-22T12:28:45;6.15;;;4.47;;
81215;SDS011;70688;52.492;13.420;2023-06-22T12:31:10;5.88;;;4.63;;
81215;SDS011;70688;52.492;13.420;2023-06-22T12:33:36;5.47;;;4.35;;
81215;SDS011;70688;52.492;13.420;2023-06-22T12:36:02;5.65;;;4.38;;
81215;SDS011;70688;52.492;13.420;2023-06-22T12:38:28;8.38;;;4.80;;
81215;SDS011;70688;52.492;13.420;2023-06-22T12:40:54;8.10;;;4.57;;
81215;SDS011;70688;52.492;13.420;2023-06-22T12:43:19;7.95;;;5.03;;
81215;SDS011;70688;52.492;13.420;2023-06-22T12:45:45;6.55;;;5.03;;
81215;SDS011;70688;52.492;13.420;2023-06-22T12:48:11;6.43;;;5.20;;
81215;SDS011;70688;52.492;13.420;2023-06-22T12:50:39;7.22;;;5.40;;
81215;SDS011;70688;52.492;13.420;2023-06-22T12:53:04;5.90;;;4.65;;
81215;SDS011;70688;52.492;13.420;2023-06-22T12:55:31;6.15;;;5.28;;
81215;SDS011;70688;52.492;13.420;2023-06-22T12:57:57;7.20;;;5.63;;
81215;SDS011;70688;52.492;13.420;2023-06-22T13:00:23;6.85;;;5.47;;
81215;SDS011;70688;52.492;13.420;2023-06-22T13:02:48;7.00;;;5.30;;
81215;SDS011;70688;52.492;13.420;2023-06-22T13:05:14;8.98;;;4.93;;
81215;SDS011;70688;52.492;13.420;2023-06-22T13:07:39;8.68;;;5.57;;
81215;SDS011;70688;52.492;13.420;2023-06-22T13:10:07;6.35;;;5.03;;
81215;SDS011;70688;52.492;13.420;2023-06-22T13:12:33;7.53;;;5.75;;
81215;SDS011;70688;52.492;13.420;2023-06-22T13:14:58;9.48;;;5.72;;
81215;SDS011;70688;52.492;13.420;2023-06-22T13:17:24;8.63;;;5.75;;
81215;SDS011;70688;52.492;13.420;2023-06-22T13:19:50;7.82;;;5.63;;
81215;SDS011;70688;52.492;13.420;2023-06-22T13:22:31;7.32;;;6.38;;
81215;SDS011;70688;52.492;13.420;2023-06-22T13:24:59;7.55;;;5.80;;
81215;SDS011;70688;52.492;13.420;2023-06-22T13:27:25;8.25;;;5.60;;
81215;SDS011;70688;52.492;13.420;2023-06-22T13:29:52;8.07;;;5.57;;
81215;SDS011;70688;52.492;13.420;2023-06-22T13:32:18;8.00;;;5.45;;
81215;SDS011;70688;52.492;13.420;2023-06-22T13:34:43;10.15;;;5.40;;
81215;SDS011;70688;52.492;13.420;2023-06-22T13:37:09;7.43;;;5.15;;
81215;SDS011;70688;52.492;13.420;2023-06-22T13:39:34;7.15;;;5.60;;
81215;SDS011;70688;52.492;13.420;2023-06-22T13:42:00;8.30;;;5.78;;
81215;SDS011;70688;52.492;13.420;2023-06-22T13:44:26;6.43;;;5.32;;
81215;SDS011;70688;52.492;13.420;2023-06-22T13:46:54;6.40;;;4.95;;
81215;SDS011;70688;52.492;13.420;2023-06-22T13:49:20;5.83;;;4.87;;
81215;SDS011;70688;52.492;13.420;2023-06-22T13:51:46;6.35;;;5.10;;
81215;SDS011;70688;52.492;13.420;2023-06-22T13:54:13;7.78;;;5.70;;
81215;SDS011;70688;52.492;13.420;2023-06-22T13:56:39;5.88;;;5.18;;
81215;SDS011;70688;52.492;13.420;2023-06-22T13:59:04;7.15;;;5.85;;
81215;SDS011;70688;52.492;13.420;2023-06-22T14:01:31;7.82;;;6.05;;
81215;SDS011;70688;52.492;13.420;2023-06-22T14:03:57;5.95;;;5.18;;
81215;SDS011;70688;52.492;13.420;2023-06-22T14:06:23;7.57;;;5.35;;
81215;SDS011;70688;52.492;13.420;2023-06-22T14:08:48;6.88;;;4.88;;
81215;SDS011;70688;52.492;13.420;2023-06-22T14:11:15;9.77;;;5.65;;
81215;SDS011;70688;52.492;13.420;2023-06-22T14:13:41;7.43;;;5.72;;
81215;SDS011;70688;52.492;13.420;2023-06-22T14:16:08;6.63;;;4.97;;
81215;SDS011;70688;52.492;13.420;2023-06-22T14:18:33;9.18;;;5.63;;
81215;SDS011;70688;52.492;13.420;2023-06-22T14:20:59;6.30;;;5.32;;
81215;SDS011;70688;52.492;13.420;2023-06-22T14:23:24;8.55;;;5.50;;
81215;SDS011;70688;52.492;13.420;2023-06-22T14:25:50;7.57;;;5.43;;
81215;SDS011;70688;52.492;13.420;2023-06-22T14:28:16;7.18;;;5.32;;
81215;SDS011;70688;52.492;13.420;2023-06-22T14:30:41;6.80;;;5.50;;
81215;SDS011;70688;52.492;13.420;2023-06-22T14:33:07;9.57;;;5.15;;
81215;SDS011;70688;52.492;13.420;2023-06-22T14:35:33;7.45;;;5.18;;
81215;SDS011;70688;52.492;13.420;2023-06-22T14:37:58;6.80;;;5.25;;